Lakewood, Ohio
Current Conditions -  °F | °C
As of 10:51 AM on Friday 31 Oct 2014 (Local Time) from KCLE Reporting Station
Overcast Overcast  
Wind Chill: 42°   Ceiling: 3700
Heat Index: 46°   Visibility: 10mi
Dew Point: 36°   Wind: 8mph
Humidity: 68%   Direction: 200°SSW
Pressure: 29.93"   Gusts: NA
Location:  41.48°N, 81.78°W
Report Text: KCLE 311451Z 20007KT 10SM BKN037 OVC050 08/02 A2993 RMK AO2 RAE10 SLP139 P0000 60000 T00780022 58009 $
Loading
Personal Weather Stations






























Interactive Weather Map
Tropical Storm Tracking
New forecast layout! Learn more

10-Day Weather Forecast

Advertisements
Track Severe Weather on mobile